SBSL

Details ICAO SBSL (SLZ)
Name Marechal Cunha Machado
Region Brazil
Timezone America/Fortaleza (UTC-3.0)
Plans Departing 50
Arriving 52
Stats Elevation 178 ft / 54 m (AMSL)
Location -2.587308° -44.236384°
Runways 2
Magnetic Variation 20.915° W
Sunrise 2017-12-12 08:44:07 UTC / 2017-12-12 05:44:07 Local
Sunset 2017-12-12 21:00:12 UTC / 2017-12-12 18:00:12 Local
Advertisement - Login to hide

Runways

ID Width Length Bearing (true) Bearing (mag) Surface Threshold Offset Overrun Length
06 148 ft / 45 m 7,902 ft / 2,409 m 38.74° 59.66° Asphalt 0 ft / 0 m 197 ft / 60 m
09 135 ft / 41 m 4,867 ft / 1,483 m 68.93° 89.85° Asphalt 270 ft / 82 m 185 ft / 56 m
24 148 ft / 45 m 7,902 ft / 2,409 m 218.74° 239.66° Asphalt 0 ft / 0 m 197 ft / 60 m
27 135 ft / 41 m 4,867 ft / 1,483 m 248.93° 269.85° Asphalt 0 ft / 0 m 200 ft / 61 m

Map

Weather


0- 5 10 15 20 25 30 35+ Temperature / ° C

Clouds and Precipitation
Forecast for 2017-12-12 12:00 UTC. Updated an hour ago

Ground ~20,000 ft ~40,000 ft Winds

METAR

SBSL 121200Z 07013KT 9999 SCT020 30/23 Q1011

TAF

TAF SBSL 121000Z 1212/1312 06015KT 9999 SCT017 TX33/1216Z TN26/1305Z BECMG 1213/1215 03015KT BECMG 1221/1223 04010KT CAVOK BECMG 1301/1303 05005KT 9999 SCT017 BECMG 1309/1311 06015KT RMK PDY

Frequencies

Tower 118.70 MHz SAO LUIS TWR
Approach 119.10 MHz SAO LUIS APP
Warning: Do not use this data for real-world aviation or navigation. No guarantee of current accuracy is given.